Terminal Aerodrome Forecast
Issued by NWS

Home | Current Version | Previous Version | Text Only | Print | Product List | Glossary On
Versions: 1 2 3 4 5 6 7 8 9 10 11 12 13 14 15 16 17 18 19 20 21
000
FTUS42 KTAE 211733
TAFECP
TAF
KECP 211733Z 2118/2218 12009KT P6SM VCSH FEW050 BKN070 OVC110
     FM212100 14010KT 3SM RA BR BKN025
     FM220400 10006KT 3SM RA BR OVC007
     FM221100 08007KT P6SM VCSH OVC007
     FM221600 06008KT P6SM BKN015=

USA.gov is the U.S. government's official web portal to all federal, state and local government web resources and services.